Time;durP1;ratioP1;P1;durP2;ratioP2;P2;SDS_P1;SDS_P2;PMS_P1;PMS_P2;Temp;Humidity;BMP_temperature;BMP_pressure;BME280_temperature;BME280_humidity;BME280_pressure;Samples;Min_cycle;Max_cycle;Signal;HPM_P1;HPM_P2
2023/09/05 00:01:33;;;;;;;3.08;2.70;;;20.80;75.20;;;;;;10444664;28;20124;-55
2023/09/05 00:06:37;;;;;;;3.95;2.75;;;20.80;75.20;;;;;;10443502;28;20488;-55
2023/09/05 00:11:37;;;;;;;2.95;2.42;;;20.80;75.20;;;;;;10442217;28;20025;-55
2023/09/05 00:16:38;;;;;;;3.67;2.83;;;20.80;75.20;;;;;;10408319;28;20053;-55
2023/09/05 00:21:39;;;;;;;3.25;2.92;;;20.80;75.20;;;;;;10405009;28;20036;-55
2023/09/05 00:26:40;;;;;;;3.10;2.80;;;20.80;75.70;;;;;;10367005;28;20033;-55
2023/09/05 00:31:40;;;;;;;4.80;3.08;;;20.80;75.70;;;;;;10384998;28;20034;-55
2023/09/05 00:36:42;;;;;;;3.90;2.55;;;20.80;75.50;;;;;;10367252;28;20034;-55
2023/09/05 00:41:43;;;;;;;3.50;2.63;;;20.80;75.40;;;;;;10367601;28;20041;-55
2023/09/05 00:46:46;;;;;;;3.60;3.03;;;20.80;75.30;;;;;;10366777;28;20589;-55
2023/09/05 00:51:50;;;;;;;3.28;2.88;;;20.80;75.30;;;;;;10367205;28;20125;-55
2023/09/05 00:56:53;;;;;;;3.88;2.58;;;20.80;75.30;;;;;;10381833;28;20053;-55
2023/09/05 01:01:56;;;;;;;3.20;2.90;;;20.80;75.80;;;;;;10367154;28;20033;-55
2023/09/05 01:07:13;;;;;;;3.65;3.20;;;20.80;75.20;;;;;;10366748;28;20091;-55
2023/09/05 01:12:14;;;;;;;3.72;3.20;;;20.80;75.20;;;;;;10401988;28;20025;-55
2023/09/05 01:17:15;;;;;;;3.40;2.30;;;20.80;75.20;;;;;;10389922;28;20377;-55
2023/09/05 01:22:33;;;;;;;3.30;2.70;;;20.70;75.10;;;;;;10398691;28;20053;-55
2023/09/05 01:27:33;;;;;;;3.03;2.47;;;20.70;75.10;;;;;;10386992;28;20025;-55
2023/09/05 01:32:34;;;;;;;3.28;2.60;;;20.80;75.10;;;;;;10401193;28;20029;-55
2023/09/05 01:37:35;;;;;;;3.38;2.83;;;20.80;75.20;;;;;;10407211;28;20034;-55
2023/09/05 01:42:37;;;;;;;3.78;3.00;;;20.70;75.30;;;;;;10380449;28;20038;-56
2023/09/05 01:47:38;;;;;;;3.42;3.08;;;20.70;75.20;;;;;;10373341;28;20048;-55
2023/09/05 01:52:38;;;;;;;3.47;2.65;;;20.70;75.20;;;;;;10373277;28;20022;-55
2023/09/05 01:57:39;;;;;;;2.60;2.30;;;20.70;75.00;;;;;;10372606;28;20018;-55
2023/09/05 02:02:40;;;;;;;3.65;3.08;;;20.70;75.00;;;;;;10372974;28;20777;-55
2023/09/05 02:07:41;;;;;;;2.75;2.42;;;20.70;75.00;;;;;;10372155;28;20030;-54
2023/09/05 02:12:45;;;;;;;3.80;3.10;;;20.70;75.00;;;;;;10372388;28;20053;-55
2023/09/05 02:17:45;;;;;;;3.17;2.85;;;20.70;74.90;;;;;;10385314;28;20038;-55
2023/09/05 02:22:46;;;;;;;5.40;4.32;;;20.70;74.80;;;;;;10372123;28;20527;-55
2023/09/05 02:27:47;;;;;;;3.55;2.65;;;20.70;74.80;;;;;;10396008;28;20087;-56
2023/09/05 02:32:55;;;;;;;3.10;2.50;;;20.70;74.80;;;;;;10379582;28;20473;-54
2023/09/05 02:37:55;;;;;;;3.03;2.60;;;20.70;74.80;;;;;;10371447;28;20346;-55
2023/09/05 02:42:56;;;;;;;3.00;2.67;;;20.70;74.80;;;;;;10371580;28;20030;-56
2023/09/05 02:47:57;;;;;;;3.03;2.10;;;20.70;74.80;;;;;;10370855;28;20042;-55
2023/09/05 02:52:58;;;;;;;2.88;2.47;;;20.70;74.80;;;;;;10383827;28;20037;-55
2023/09/05 02:57:58;;;;;;;3.38;2.70;;;20.70;74.80;;;;;;10370066;28;20026;-56
2023/09/05 03:03:00;;;;;;;3.50;2.90;;;20.60;74.80;;;;;;10370412;28;20596;-56
2023/09/05 03:08:01;;;;;;;3.60;2.75;;;20.60;74.70;;;;;;10369586;28;20034;-56
2023/09/05 03:13:02;;;;;;;3.30;2.70;;;20.70;74.80;;;;;;10370172;28;20448;-55
2023/09/05 03:18:03;;;;;;;3.53;3.17;;;20.60;74.70;;;;;;10396205;28;20057;-56
2023/09/05 03:23:04;;;;;;;2.97;2.47;;;20.60;74.70;;;;;;10370226;28;20068;-56
2023/09/05 03:28:05;;;;;;;3.25;2.72;;;20.60;74.60;;;;;;10377141;28;20086;-56
2023/09/05 03:33:06;;;;;;;3.35;2.95;;;20.60;74.60;;;;;;10380998;28;20032;-56
2023/09/05 03:38:06;;;;;;;4.05;2.88;;;20.60;74.60;;;;;;10375304;28;20040;-56
2023/09/05 03:43:07;;;;;;;3.40;3.10;;;20.60;74.60;;;;;;10398697;28;20051;-55
2023/09/05 03:48:08;;;;;;;4.35;3.95;;;20.60;74.50;;;;;;10386811;28;20469;-55
2023/09/05 03:53:09;;;;;;;4.20;3.72;;;20.70;75.40;;;;;;10381849;28;20102;-56
2023/09/05 03:58:11;;;;;;;4.25;3.40;;;20.70;75.10;;;;;;10383601;28;20022;-55
2023/09/05 04:03:12;;;;;;;5.13;3.58;;;20.80;75.00;;;;;;10382141;28;20029;-56
2023/09/05 04:08:13;;;;;;;4.25;3.85;;;20.80;74.80;;;;;;10388117;28;20472;-56
2023/09/05 04:13:14;;;;;;;3.60;3.30;;;20.80;74.80;;;;;;10408177;28;20057;-56
2023/09/05 04:18:14;;;;;;;3.78;3.40;;;20.70;74.70;;;;;;10408641;28;20025;-56
2023/09/05 04:23:15;;;;;;;3.83;3.42;;;20.70;74.80;;;;;;10392426;28;20420;-55
2023/09/05 04:28:16;;;;;;;3.50;3.20;;;20.60;74.60;;;;;;10377753;28;20028;-55
2023/09/05 04:33:17;;;;;;;3.75;3.45;;;20.60;74.60;;;;;;10373702;28;20087;-55
2023/09/05 04:38:18;;;;;;;3.78;3.30;;;20.60;74.60;;;;;;10367215;28;20030;-55
2023/09/05 04:43:19;;;;;;;4.57;3.90;;;20.60;74.70;;;;;;10365863;28;20069;-56
2023/09/05 04:48:19;;;;;;;4.03;3.47;;;20.60;74.70;;;;;;10364179;28;20072;-55
2023/09/05 04:53:20;;;;;;;3.45;3.05;;;20.60;74.70;;;;;;10366867;28;20045;-55
2023/09/05 04:58:21;;;;;;;3.90;3.45;;;20.60;74.70;;;;;;10365364;28;20034;-56
2023/09/05 05:03:24;;;;;;;3.63;3.00;;;20.60;74.70;;;;;;10367028;28;20374;-56
2023/09/05 05:08:25;;;;;;;6.25;3.85;;;20.60;74.50;;;;;;10367379;28;20041;-57
2023/09/05 05:13:25;;;;;;;9.65;4.10;;;20.70;74.90;;;;;;10369118;28;20647;-55
2023/09/05 05:18:26;;;;;;;6.72;4.30;;;20.80;75.00;;;;;;10409449;28;20029;-55
2023/09/05 05:23:27;;;;;;;6.15;4.25;;;20.80;74.90;;;;;;10397629;28;20046;-56
2023/09/05 05:28:28;;;;;;;5.32;3.65;;;20.80;74.70;;;;;;10387309;28;20056;-56
2023/09/05 05:33:28;;;;;;;13.98;4.65;;;20.80;74.70;;;;;;10377958;28;20109;-55
2023/09/05 05:38:29;;;;;;;7.88;3.53;;;20.80;74.80;;;;;;10373302;28;20030;-56
2023/09/05 05:43:30;;;;;;;9.73;4.30;;;20.80;74.70;;;;;;10373484;28;20033;-56
2023/09/05 05:48:30;;;;;;;17.13;4.55;;;20.80;74.60;;;;;;10376573;28;20367;-55
2023/09/05 05:53:32;;;;;;;10.57;4.60;;;20.80;74.50;;;;;;10376079;28;20030;-55
2023/09/05 05:58:33;;;;;;;15.90;4.55;;;20.80;74.20;;;;;;10372563;28;20070;-55
2023/09/05 06:03:36;;;;;;;12.82;4.10;;;20.80;74.20;;;;;;10372952;28;20030;-55
2023/09/05 06:08:37;;;;;;;9.55;3.55;;;20.80;74.70;;;;;;10387439;28;20045;-55
2023/09/05 06:13:38;;;;;;;12.15;3.92;;;20.80;74.80;;;;;;10372661;28;20458;-56
2023/09/05 06:18:38;;;;;;;15.15;4.15;;;20.90;73.70;;;;;;10408377;28;20038;-56
2023/09/05 06:23:39;;;;;;;8.02;3.80;;;20.80;74.10;;;;;;10392655;28;20018;-56
2023/09/05 06:28:40;;;;;;;5.63;3.60;;;20.70;74.10;;;;;;10389289;28;20040;-55
2023/09/05 06:33:41;;;;;;;5.78;3.75;;;20.70;74.30;;;;;;10372086;28;20033;-55
2023/09/05 06:38:41;;;;;;;6.47;3.78;;;20.70;74.40;;;;;;10371640;28;20041;-55
2023/09/05 06:43:42;;;;;;;8.13;3.95;;;20.70;74.60;;;;;;10373427;28;20034;-56
2023/09/05 06:48:43;;;;;;;6.60;4.00;;;20.60;74.40;;;;;;10389223;28;20425;-56
2023/09/05 06:53:44;;;;;;;3.28;2.75;;;20.60;74.30;;;;;;10392712;28;20040;-55
2023/09/05 06:58:44;;;;;;;5.43;3.53;;;20.70;74.20;;;;;;10400851;28;20026;-55
2023/09/05 07:03:45;;;;;;;3.67;2.42;;;20.70;74.30;;;;;;10391696;28;20025;-55
2023/09/05 07:08:46;;;;;;;3.90;2.42;;;20.70;74.10;;;;;;10382567;28;20047;-55
2023/09/05 07:13:47;;;;;;;3.50;2.50;;;20.70;73.90;;;;;;10369541;28;20064;-54
2023/09/05 07:18:48;;;;;;;6.75;3.63;;;20.70;73.70;;;;;;10407844;28;20034;-56
2023/09/05 07:23:48;;;;;;;6.03;3.05;;;20.70;73.70;;;;;;10387825;28;20026;-59
2023/09/05 07:28:49;;;;;;;4.05;2.38;;;20.70;73.30;;;;;;10406426;28;20044;-59
2023/09/05 07:33:50;;;;;;;3.80;2.60;;;20.70;73.30;;;;;;10368680;28;20385;-58
2023/09/05 07:38:51;;;;;;;4.35;2.58;;;20.70;73.20;;;;;;10372134;28;20480;-58
2023/09/05 07:43:51;;;;;;;3.20;2.13;;;20.70;73.40;;;;;;10368132;28;20389;-57
2023/09/05 07:48:52;;;;;;;5.68;3.42;;;20.70;73.30;;;;;;10368860;28;20034;-57
2023/09/05 07:54:06;;;;;;;6.55;3.30;;;20.70;73.10;;;;;;10368439;28;20037;-57
2023/09/05 07:59:07;;;;;;;5.55;2.97;;;20.70;72.60;;;;;;10368839;28;20040;-59
2023/09/05 08:04:08;;;;;;;5.93;3.45;;;20.70;72.60;;;;;;10379311;28;20040;-61
2023/09/05 08:09:09;;;;;;;6.28;3.15;;;20.80;72.40;;;;;;10367960;28;20485;-59
2023/09/05 08:14:09;;;;;;;4.95;2.72;;;20.80;72.50;;;;;;10367648;28;20077;-58
2023/09/05 08:19:10;;;;;;;7.38;4.10;;;20.80;72.40;;;;;;10408278;28;20030;-58
2023/09/05 08:24:11;;;;;;;3.53;2.78;;;20.80;72.40;;;;;;10383982;28;20034;-58
2023/09/05 08:29:14;;;;;;;4.30;2.67;;;20.90;72.50;;;;;;10386496;28;20022;-58
2023/09/05 08:34:14;;;;;;;4.72;3.00;;;20.80;72.40;;;;;;10367419;28;20030;-59
2023/09/05 08:39:15;;;;;;;5.57;3.13;;;20.90;72.40;;;;;;10367394;28;20453;-57
2023/09/05 08:44:16;;;;;;;6.47;3.08;;;20.90;72.50;;;;;;10366905;28;20045;-58
2023/09/05 08:49:17;;;;;;;4.65;2.40;;;20.90;72.40;;;;;;10366129;28;20073;-58
2023/09/05 08:54:18;;;;;;;3.63;2.10;;;21.00;72.50;;;;;;10390630;28;20049;-58
2023/09/05 08:59:20;;;;;;;4.68;3.00;;;21.00;72.30;;;;;;10390504;28;20108;-59
2023/09/05 09:04:21;;;;;;;4.05;2.75;;;21.00;72.10;;;;;;10405738;28;20029;-56
2023/09/05 09:09:36;;;;;;;5.03;2.75;;;21.10;72.20;;;;;;10374552;28;20255;-57
2023/09/05 09:14:36;;;;;;;7.82;3.03;;;21.10;72.20;;;;;;10377714;28;20124;-57
2023/09/05 09:19:40;;;;;;;4.30;2.75;;;21.10;72.30;;;;;;10413798;28;20021;-56
2023/09/05 09:24:41;;;;;;;3.42;2.50;;;21.10;72.20;;;;;;10373577;28;20805;-55
2023/09/05 09:29:41;;;;;;;4.93;2.65;;;21.20;72.40;;;;;;10391588;28;20045;-56
2023/09/05 09:34:42;;;;;;;4.70;2.90;;;21.20;72.60;;;;;;10372626;28;20531;-58
2023/09/05 09:39:47;;;;;;;5.07;2.42;;;21.20;72.50;;;;;;10407362;28;20022;-58
2023/09/05 09:44:49;;;;;;;4.45;2.70;;;21.20;72.50;;;;;;10413379;28;20030;-60
2023/09/05 09:49:55;;;;;;;5.20;2.53;;;21.20;72.50;;;;;;10413862;28;20033;-59
2023/09/05 09:55:01;;;;;;;4.90;2.80;;;21.30;72.20;;;;;;10398358;28;20087;-60
2023/09/05 10:00:15;;;;;;;3.70;2.83;;;21.30;71.70;;;;;;10412447;28;20061;-59
2023/09/05 10:05:17;;;;;;;9.40;3.83;;;21.40;71.80;;;;;;10412364;28;20414;-60
2023/09/05 10:10:18;;;;;;;6.53;2.70;;;21.40;71.40;;;;;;10404996;28;20032;-59
2023/09/05 10:15:21;;;;;;;5.22;2.85;;;21.40;70.90;;;;;;10381118;28;20041;-60
2023/09/05 10:20:25;;;;;;;4.45;3.17;;;21.50;70.80;;;;;;10373952;28;20463;-59
2023/09/05 10:25:27;;;;;;;5.18;2.50;;;21.50;70.60;;;;;;10386439;28;20044;-60
2023/09/05 10:30:28;;;;;;;5.30;2.70;;;21.50;70.70;;;;;;10388030;28;20549;-59
2023/09/05 10:35:30;;;;;;;4.55;3.20;;;21.60;70.80;;;;;;10370194;28;20033;-59
2023/09/05 10:40:39;;;;;;;4.13;2.88;;;21.60;70.80;;;;;;10370756;28;20057;-60
2023/09/05 10:45:40;;;;;;;4.13;2.65;;;21.60;70.90;;;;;;10369697;28;20045;-59
2023/09/05 10:51:08;;;;;;;3.33;2.60;;;21.60;70.80;;;;;;10369912;28;20026;-60
2023/09/05 10:56:41;;;;;;;3.33;2.35;;;21.70;70.70;;;;;;10368622;28;20108;-59
2023/09/05 11:01:45;;;;;;;4.63;2.65;;;21.70;70.70;;;;;;10369640;28;20485;-60
2023/09/05 11:07:05;;;;;;;3.90;2.35;;;21.70;70.30;;;;;;10368790;28;20157;-59
2023/09/05 11:12:07;;;;;;;3.95;2.45;;;21.80;70.30;;;;;;10400804;28;20029;-60
2023/09/05 11:17:13;;;;;;;4.35;2.25;;;21.80;70.30;;;;;;10397743;28;20449;-60
2023/09/05 11:22:22;;;;;;;4.00;2.60;;;21.80;70.30;;;;;;10369248;28;20033;-60
2023/09/05 11:27:25;;;;;;;5.25;2.88;;;21.80;70.20;;;;;;10400713;28;20029;-57
2023/09/05 11:32:32;;;;;;;3.53;2.65;;;21.90;70.10;;;;;;10389170;28;20070;-59
2023/09/05 11:37:33;;;;;;;4.57;2.35;;;21.90;70.00;;;;;;10368641;28;20440;-58
2023/09/05 11:42:33;;;;;;;4.57;2.13;;;21.90;70.00;;;;;;10368069;28;20076;-58
2023/09/05 11:47:34;;;;;;;3.55;2.13;;;21.90;69.80;;;;;;10368011;28;20040;-59
2023/09/05 11:52:40;;;;;;;3.72;2.05;;;21.90;69.90;;;;;;10391348;28;20029;-56
2023/09/05 11:57:41;;;;;;;3.42;2.38;;;21.90;69.80;;;;;;10380283;28;20054;-56
2023/09/05 12:02:42;;;;;;;4.72;2.20;;;22.00;70.20;;;;;;10367740;28;20119;-57
2023/09/05 12:07:52;;;;;;;4.72;1.98;;;21.90;70.30;;;;;;10367114;28;20040;-56
2023/09/05 12:13:04;;;;;;;3.60;2.60;;;22.00;70.40;;;;;;10367015;28;20133;-56
2023/09/05 12:18:06;;;;;;;3.13;2.10;;;21.90;70.40;;;;;;10398981;28;20030;-57
2023/09/05 12:23:07;;;;;;;4.32;2.15;;;21.90;70.40;;;;;;10392439;28;20068;-59
2023/09/05 12:28:16;;;;;;;5.97;2.03;;;22.00;70.60;;;;;;10412057;28;20029;-58
2023/09/05 12:33:18;;;;;;;3.55;1.77;;;22.00;70.40;;;;;;10397709;28;20772;-59
2023/09/05 12:38:20;;;;;;;3.00;2.00;;;22.00;69.90;;;;;;10408019;28;20436;-59
2023/09/05 12:43:21;;;;;;;3.33;1.92;;;22.00;69.40;;;;;;10407224;28;20109;-57
2023/09/05 12:48:21;;;;;;;5.03;2.50;;;22.10;69.30;;;;;;10406395;28;20044;-60
2023/09/05 12:53:23;;;;;;;3.05;2.03;;;22.00;69.40;;;;;;10407760;28;20037;-59
2023/09/05 12:58:24;;;;;;;3.60;2.13;;;22.00;69.20;;;;;;10406742;28;20665;-59
2023/09/05 13:03:25;;;;;;;2.47;1.70;;;22.10;69.10;;;;;;10406897;28;20035;-59
2023/09/05 13:08:26;;;;;;;2.85;1.83;;;22.10;68.90;;;;;;10406530;28;20021;-59
2023/09/05 13:13:27;;;;;;;4.57;1.92;;;22.10;69.00;;;;;;10407282;28;20065;-60
2023/09/05 13:18:27;;;;;;;3.10;1.98;;;22.00;68.80;;;;;;10406480;28;20037;-60
2023/09/05 13:23:28;;;;;;;5.07;1.90;;;22.10;68.90;;;;;;10388487;28;20052;-60
2023/09/05 13:28:29;;;;;;;4.00;2.00;;;22.10;69.10;;;;;;10389905;28;20033;-59
2023/09/05 13:33:30;;;;;;;4.15;2.00;;;22.00;69.10;;;;;;10372300;28;20037;-59
2023/09/05 13:38:30;;;;;;;4.07;2.50;;;22.10;69.40;;;;;;10372213;28;20030;-59
2023/09/05 13:43:31;;;;;;;3.40;2.38;;;22.00;69.40;;;;;;10373174;28;20080;-60
2023/09/05 13:48:32;;;;;;;4.50;2.13;;;22.10;69.50;;;;;;10372511;28;20392;-59
2023/09/05 13:53:33;;;;;;;3.95;2.17;;;22.00;69.50;;;;;;10377665;28;20087;-59
2023/09/05 13:58:33;;;;;;;3.72;2.45;;;22.00;69.50;;;;;;10412172;28;20037;-59
2023/09/05 14:03:34;;;;;;;3.92;2.40;;;22.00;69.60;;;;;;10393585;28;20028;-59
2023/09/05 14:08:35;;;;;;;4.25;1.90;;;22.00;69.70;;;;;;10370996;28;20057;-60
2023/09/05 14:13:36;;;;;;;2.92;1.92;;;22.00;69.80;;;;;;10371816;28;20050;-59
2023/09/05 14:18:36;;;;;;;2.92;1.65;;;22.00;69.80;;;;;;10407619;28;20378;-57
2023/09/05 14:23:40;;;;;;;4.10;1.80;;;21.90;69.80;;;;;;10393212;28;20026;-57
2023/09/05 14:28:41;;;;;;;2.88;1.75;;;22.00;69.90;;;;;;10387800;28;20032;-58
2023/09/05 14:33:43;;;;;;;2.58;1.90;;;21.90;69.90;;;;;;10371067;28;20026;-58
2023/09/05 14:38:44;;;;;;;2.63;1.80;;;21.90;69.90;;;;;;10383363;28;20366;-56
2023/09/05 14:43:45;;;;;;;3.22;2.00;;;22.00;69.90;;;;;;10380352;28;20065;-58
2023/09/05 14:48:46;;;;;;;2.92;1.90;;;21.90;69.90;;;;;;10391010;28;20034;-60
2023/09/05 14:53:46;;;;;;;3.00;2.10;;;22.00;69.90;;;;;;10394011;28;20922;-59
2023/09/05 14:58:47;;;;;;;3.00;2.00;;;22.00;69.50;;;;;;10394395;28;20539;-59
2023/09/05 15:03:48;;;;;;;4.40;1.98;;;22.10;69.50;;;;;;10389102;28;20477;-57
2023/09/05 15:08:48;;;;;;;4.38;2.20;;;22.00;69.70;;;;;;10391162;28;20026;-56
2023/09/05 15:13:49;;;;;;;3.60;3.10;;;22.10;69.90;;;;;;10385030;28;20110;-57
2023/09/05 15:18:50;;;;;;;3.80;3.30;;;22.00;70.00;;;;;;10387749;28;20025;-56
2023/09/05 15:23:51;;;;;;;5.93;3.38;;;22.00;70.10;;;;;;10385408;28;20014;-56
2023/09/05 15:28:51;;;;;;;4.40;2.85;;;22.10;70.40;;;;;;10389694;28;20029;-55
2023/09/05 15:33:52;;;;;;;6.45;2.90;;;22.00;70.40;;;;;;10384519;28;20040;-58
2023/09/05 15:38:53;;;;;;;9.77;3.33;;;22.10;70.50;;;;;;10385504;28;20455;-57
2023/09/05 15:43:54;;;;;;;7.95;4.05;;;22.10;70.80;;;;;;10384041;28;20022;-60
2023/09/05 15:48:55;;;;;;;10.15;3.20;;;22.10;70.80;;;;;;10386194;28;20029;-59
2023/09/05 15:53:56;;;;;;;5.47;2.60;;;22.20;70.90;;;;;;10388183;28;20026;-60
2023/09/05 15:58:57;;;;;;;4.75;2.15;;;22.20;70.80;;;;;;10382614;28;20030;-59
2023/09/05 16:03:58;;;;;;;3.33;2.08;;;22.10;70.70;;;;;;10383527;28;20022;-59
2023/09/05 16:08:58;;;;;;;4.28;2.28;;;22.20;70.80;;;;;;10382954;28;20068;-59
2023/09/05 16:14:00;;;;;;;3.45;2.53;;;22.20;70.70;;;;;;10371240;28;20042;-58
2023/09/05 16:19:01;;;;;;;5.78;2.75;;;22.20;70.70;;;;;;10406477;28;20469;-59
2023/09/05 16:24:03;;;;;;;4.47;2.65;;;22.20;70.70;;;;;;10384963;28;20046;-59
2023/09/05 16:29:04;;;;;;;3.72;2.35;;;22.20;70.80;;;;;;10385148;28;20411;-59
2023/09/05 16:34:06;;;;;;;5.63;2.35;;;22.10;70.90;;;;;;10388246;28;20030;-59
2023/09/05 16:39:06;;;;;;;4.28;2.25;;;22.10;71.00;;;;;;10407191;28;20039;-59
2023/09/05 16:44:07;;;;;;;5.13;2.70;;;22.10;70.90;;;;;;10395098;28;20030;-60
2023/09/05 16:49:08;;;;;;;5.50;2.28;;;22.10;71.10;;;;;;10380977;28;20034;-59
2023/09/05 16:54:09;;;;;;;3.55;2.25;;;22.10;71.10;;;;;;10384124;28;20104;-59
2023/09/05 16:59:12;;;;;;;4.20;2.80;;;22.10;71.20;;;;;;10389226;28;20469;-59
2023/09/05 17:04:13;;;;;;;3.72;2.55;;;22.10;71.20;;;;;;10393067;28;20127;-57
2023/09/05 17:09:14;;;;;;;5.25;2.83;;;22.10;71.80;;;;;;10410044;28;20144;-56
2023/09/05 17:14:15;;;;;;;3.45;2.63;;;22.10;71.60;;;;;;10414431;28;20610;-58
2023/09/05 17:19:16;;;;;;;4.03;2.08;;;22.10;71.30;;;;;;10414769;28;20061;-57
2023/09/05 17:24:17;;;;;;;4.03;2.33;;;22.10;71.50;;;;;;10389544;28;20444;-57
2023/09/05 17:29:17;;;;;;;4.50;2.22;;;22.00;71.70;;;;;;10390392;28;20034;-57
2023/09/05 17:34:18;;;;;;;6.93;3.10;;;22.10;71.80;;;;;;10378421;28;20022;-58
2023/09/05 17:39:19;;;;;;;7.57;2.88;;;22.00;71.90;;;;;;10409329;28;20063;-57
2023/09/05 17:44:20;;;;;;;25.40;4.05;;;22.00;72.10;;;;;;10383324;28;20029;-57
2023/09/05 17:49:21;;;;;;;9.30;3.15;;;22.10;72.30;;;;;;10395825;28;20033;-56
2023/09/05 17:54:22;;;;;;;9.07;3.05;;;22.10;72.30;;;;;;10398852;28;20123;-55
2023/09/05 17:59:22;;;;;;;10.60;3.20;;;22.10;72.40;;;;;;10409935;28;20632;-57
2023/09/05 18:04:23;;;;;;;8.10;3.03;;;22.00;72.60;;;;;;10378199;28;20466;-59
2023/09/05 18:09:24;;;;;;;11.63;2.97;;;22.10;72.30;;;;;;10370329;28;20037;-58
2023/09/05 18:14:25;;;;;;;6.32;2.65;;;22.10;72.20;;;;;;10374067;28;20042;-57
2023/09/05 18:19:25;;;;;;;10.15;3.13;;;22.20;72.70;;;;;;10411627;28;20096;-60
2023/09/05 18:24:26;;;;;;;7.80;3.38;;;22.20;72.50;;;;;;10386362;28;20038;-61
2023/09/05 18:29:27;;;;;;;10.15;2.90;;;22.00;72.60;;;;;;10399880;28;20040;-60
2023/09/05 18:34:46;;;;;;;5.93;2.38;;;22.10;72.70;;;;;;10371559;28;20397;-61
2023/09/05 18:39:47;;;;;;;3.60;2.72;;;22.00;72.80;;;;;;10378042;28;20033;-60
2023/09/05 18:44:48;;;;;;;5.40;2.50;;;22.00;72.80;;;;;;10373456;28;20048;-61
2023/09/05 18:49:48;;;;;;;7.47;3.15;;;22.00;72.90;;;;;;10395360;28;20033;-60
2023/09/05 18:54:49;;;;;;;4.53;2.17;;;22.00;73.00;;;;;;10387650;28;20056;-56
2023/09/05 18:59:50;;;;;;;4.90;2.47;;;22.00;73.20;;;;;;10393383;28;20029;-57
2023/09/05 19:04:50;;;;;;;3.88;2.30;;;22.00;73.30;;;;;;10390925;28;20131;-57
2023/09/05 19:09:51;;;;;;;4.35;2.88;;;22.00;73.30;;;;;;10383597;28;20037;-57
2023/09/05 19:14:52;;;;;;;4.90;2.85;;;22.00;73.40;;;;;;10407392;28;20053;-57
2023/09/05 19:19:53;;;;;;;6.22;2.45;;;22.00;73.50;;;;;;10410779;28;20090;-58
2023/09/05 19:24:53;;;;;;;4.75;2.70;;;22.00;73.60;;;;;;10381160;28;20044;-58
2023/09/05 19:29:54;;;;;;;4.50;2.40;;;22.00;73.60;;;;;;10380268;28;20489;-57
2023/09/05 19:34:55;;;;;;;6.43;2.47;;;21.90;73.50;;;;;;10383688;28;20033;-57
2023/09/05 19:39:55;;;;;;;4.35;2.08;;;22.00;73.70;;;;;;10366424;28;20055;-56
2023/09/05 19:44:56;;;;;;;3.80;2.90;;;21.90;73.70;;;;;;10366177;28;20030;-57
2023/09/05 19:49:57;;;;;;;2.42;2.20;;;22.00;73.80;;;;;;10365732;28;20029;-57
2023/09/05 19:55:00;;;;;;;4.85;2.72;;;22.00;73.80;;;;;;10365773;28;20034;-57
2023/09/05 20:00:01;;;;;;;6.07;2.78;;;21.90;73.90;;;;;;10365553;28;20029;-58
2023/09/05 20:05:04;;;;;;;5.15;2.58;;;22.00;73.90;;;;;;10365835;28;20038;-57
2023/09/05 20:10:06;;;;;;;5.10;2.42;;;21.90;73.90;;;;;;10364917;28;20455;-57
2023/09/05 20:15:08;;;;;;;5.10;2.30;;;21.90;74.00;;;;;;10373197;28;20084;-57
2023/09/05 20:20:12;;;;;;;4.30;2.25;;;21.90;74.00;;;;;;10405446;28;20029;-57
2023/09/05 20:25:13;;;;;;;3.58;2.00;;;21.90;74.00;;;;;;10374118;28;20100;-57
2023/09/05 20:30:14;;;;;;;5.22;2.53;;;21.90;74.10;;;;;;10382824;28;20812;-57
2023/09/05 20:35:15;;;;;;;2.78;2.03;;;21.90;74.20;;;;;;10378390;28;20053;-57
2023/09/05 20:40:15;;;;;;;4.20;2.78;;;21.90;74.10;;;;;;10365063;28;20050;-58
2023/09/05 20:45:16;;;;;;;2.92;1.98;;;21.90;74.20;;;;;;10383330;28;20481;-57
2023/09/05 20:50:17;;;;;;;3.42;2.20;;;21.90;74.10;;;;;;10373097;28;20117;-57
2023/09/05 20:55:18;;;;;;;3.05;2.25;;;21.90;74.00;;;;;;10372739;28;20025;-57
2023/09/05 21:00:21;;;;;;;2.65;1.90;;;21.90;74.10;;;;;;10372246;28;20030;-57
2023/09/05 21:05:21;;;;;;;3.35;2.10;;;21.90;74.20;;;;;;10372495;28;20026;-57
2023/09/05 21:10:22;;;;;;;3.03;2.45;;;21.90;74.20;;;;;;10371660;28;20045;-57
2023/09/05 21:15:24;;;;;;;4.78;3.08;;;21.90;74.10;;;;;;10381039;28;20403;-58
2023/09/05 21:20:24;;;;;;;3.28;2.42;;;21.90;74.20;;;;;;10372994;28;20030;-57
2023/09/05 21:25:25;;;;;;;3.35;2.53;;;21.80;74.20;;;;;;10372248;28;20429;-57
2023/09/05 21:30:28;;;;;;;3.22;2.15;;;21.90;74.20;;;;;;10371526;28;20042;-58
2023/09/05 21:35:28;;;;;;;3.38;2.20;;;21.90;74.10;;;;;;10371090;28;20501;-57
2023/09/05 21:40:29;;;;;;;3.40;1.88;;;21.90;74.20;;;;;;10371130;28;20114;-57
2023/09/05 21:45:30;;;;;;;5.82;2.28;;;21.90;74.20;;;;;;10370831;28;20512;-58
2023/09/05 21:50:31;;;;;;;4.03;2.70;;;21.90;74.20;;;;;;10371158;28;20473;-58
2023/09/05 21:55:32;;;;;;;3.40;2.45;;;21.80;74.10;;;;;;10369132;28;20273;-57
2023/09/05 22:00:41;;;;;;;2.53;2.00;;;21.90;74.10;;;;;;10370278;28;20037;-56
2023/09/05 22:05:42;;;;;;;;;;;21.80;74.00;;;;;;10371423;28;20037;-57
2023/09/05 22:10:43;;;;;;;3.40;2.33;;;21.80;74.00;;;;;;10393886;28;19913;-57
2023/09/05 22:15:52;;;;;;;3.67;2.05;;;21.90;74.10;;;;;;10410143;28;20056;-57
2023/09/05 22:20:52;;;;;;;3.30;1.98;;;21.80;74.00;;;;;;10381854;28;20022;-57
2023/09/05 22:25:53;;;;;;;2.78;1.85;;;21.90;74.10;;;;;;10371390;28;20044;-57
2023/09/05 22:30:55;;;;;;;3.65;2.50;;;21.90;74.10;;;;;;10389523;28;20037;-58
2023/09/05 22:35:56;;;;;;;2.92;2.13;;;21.90;74.10;;;;;;10370188;28;20022;-56
2023/09/05 22:40:56;;;;;;;2.20;1.83;;;21.80;74.00;;;;;;10368908;28;20029;-57
2023/09/05 22:45:57;;;;;;;3.33;2.33;;;21.90;74.10;;;;;;10368488;28;20034;-57
2023/09/05 22:50:58;;;;;;;3.88;1.95;;;21.90;74.10;;;;;;10368313;28;20481;-57
2023/09/05 22:56:17;;;;;;;2.75;2.20;;;21.80;74.00;;;;;;10367633;28;20026;-57
2023/09/05 23:01:18;;;;;;;2.85;1.88;;;21.90;74.00;;;;;;10369658;28;20057;-57
2023/09/05 23:06:19;;;;;;;3.40;2.15;;;21.80;74.00;;;;;;10367896;28;20493;-57
2023/09/05 23:11:20;;;;;;;2.53;1.92;;;21.90;74.00;;;;;;10367808;28;20038;-57
2023/09/05 23:16:20;;;;;;;2.75;1.77;;;21.80;73.90;;;;;;10390443;28;20497;-58
2023/09/05 23:21:21;;;;;;;3.08;2.10;;;21.90;73.90;;;;;;10407512;28;20033;-57
2023/09/05 23:26:23;;;;;;;2.58;1.70;;;21.90;73.90;;;;;;10366769;28;20092;-57
2023/09/05 23:31:24;;;;;;;2.53;2.00;;;21.90;73.90;;;;;;10368303;28;20091;-57
2023/09/05 23:36:25;;;;;;;3.08;1.77;;;21.80;73.90;;;;;;10377030;28;20022;-57
2023/09/05 23:41:28;;;;;;;4.25;2.05;;;21.80;73.90;;;;;;10366431;28;20503;-57
2023/09/05 23:46:29;;;;;;;2.33;1.60;;;21.80;74.50;;;;;;10366028;28;20444;-58
2023/09/05 23:51:29;;;;;;;3.08;2.15;;;21.80;73.80;;;;;;10366298;28;20036;-57
2023/09/05 23:56:30;;;;;;;3.35;2.30;;;21.80;73.90;;;;;;10366159;28;20032;-57
